createdAt,value
2023-03-26T00:01:05.648Z,8.00
2023-03-26T00:03:34.335Z,8.00
2023-03-26T00:06:07.421Z,7.90
2023-03-26T00:08:35.632Z,7.80
2023-03-26T00:11:04.168Z,7.80
2023-03-26T00:13:32.348Z,7.80
2023-03-26T00:15:59.226Z,7.70
2023-03-26T00:18:30.663Z,7.60
2023-03-26T00:21:02.494Z,7.50
2023-03-26T00:23:30.690Z,7.50
2023-03-26T00:25:57.671Z,7.50
2023-03-26T00:28:24.811Z,7.40
2023-03-26T00:31:03.858Z,7.40
2023-03-26T00:33:31.798Z,7.40
2023-03-26T00:36:02.469Z,7.40
2023-03-26T00:38:30.936Z,7.40
2023-03-26T00:41:05.839Z,7.40
2023-03-26T00:43:35.163Z,7.40
2023-03-26T00:46:03.006Z,7.30
2023-03-26T00:48:44.624Z,7.30
2023-03-26T00:51:15.359Z,7.30
2023-03-26T00:53:44.454Z,7.20
2023-03-26T00:56:11.997Z,7.20
2023-03-26T00:58:39.129Z,7.20
2023-03-26T01:01:09.547Z,7.20
2023-03-26T01:03:40.089Z,7.10
2023-03-26T01:06:13.173Z,7.10
2023-03-26T01:08:48.817Z,7.10
2023-03-26T01:11:23.827Z,7.00
2023-03-26T01:14:12.839Z,7.00
2023-03-26T01:16:50.071Z,6.90
2023-03-26T01:19:29.950Z,6.90
2023-03-26T01:21:58.471Z,6.80
2023-03-26T01:24:25.294Z,6.80
2023-03-26T01:27:04.351Z,6.80
2023-03-26T01:29:56.336Z,6.80
2023-03-26T01:32:33.416Z,6.80
2023-03-26T01:35:08.958Z,6.80
2023-03-26T01:38:01.453Z,6.80
2023-03-26T01:40:47.020Z,6.80
2023-03-26T01:43:42.543Z,6.80
2023-03-26T01:46:11.931Z,6.80
2023-03-26T01:48:44.680Z,6.80
2023-03-26T01:51:12.806Z,6.80
2023-03-26T01:53:46.343Z,6.80
2023-03-26T01:56:26.173Z,6.80
2023-03-26T01:59:20.408Z,6.80
2023-03-26T02:02:11.305Z,6.80
2023-03-26T02:04:58.407Z,6.70
2023-03-26T02:07:38.016Z,6.80
2023-03-26T02:10:13.756Z,6.80
2023-03-26T02:12:43.215Z,6.80
2023-03-26T02:15:11.517Z,6.80
2023-03-26T02:17:40.358Z,6.80
2023-03-26T02:20:14.205Z,6.80
2023-03-26T02:22:45.617Z,6.80
2023-03-26T02:25:16.934Z,6.80
2023-03-26T02:27:45.414Z,6.70
2023-03-26T02:30:16.873Z,6.80
2023-03-26T02:32:46.263Z,6.80
2023-03-26T02:35:13.626Z,6.70
2023-03-26T02:37:46.725Z,6.60
2023-03-26T02:40:21.004Z,6.70
2023-03-26T02:42:48.443Z,6.50
2023-03-26T02:45:15.693Z,6.60
2023-03-26T02:48:15.201Z,6.60
2023-03-26T02:50:54.613Z,6.60
2023-03-26T02:53:23.685Z,6.60
2023-03-26T02:56:02.813Z,6.60
2023-03-26T02:58:37.202Z,6.60
2023-03-26T03:01:05.308Z,6.70
2023-03-26T03:03:40.592Z,6.70
2023-03-26T03:06:25.109Z,6.80
2023-03-26T03:08:55.055Z,6.70
2023-03-26T03:11:37.794Z,6.70
2023-03-26T03:14:06.175Z,6.70
2023-03-26T03:16:34.215Z,6.70
2023-03-26T03:19:09.746Z,6.70
2023-03-26T03:21:40.953Z,6.80
2023-03-26T03:24:11.563Z,6.70
2023-03-26T03:26:44.649Z,6.80
2023-03-26T03:29:31.132Z,6.80
2023-03-26T03:32:05.843Z,6.80
2023-03-26T03:34:42.396Z,6.80
2023-03-26T03:37:09.154Z,6.90
2023-03-26T03:39:45.166Z,6.90
2023-03-26T03:42:15.084Z,6.90
2023-03-26T03:44:41.966Z,6.90
2023-03-26T03:47:21.044Z,6.90
2023-03-26T03:49:51.129Z,6.90
2023-03-26T03:52:18.393Z,6.90
2023-03-26T03:54:45.729Z,6.90
2023-03-26T03:57:24.188Z,7.00
2023-03-26T03:59:59.475Z,7.10
2023-03-26T04:02:34.920Z,7.10
2023-03-26T04:05:06.046Z,7.10
2023-03-26T04:07:32.920Z,7.20
2023-03-26T04:10:10.460Z,7.10
2023-03-26T04:12:56.039Z,7.20
2023-03-26T04:15:39.250Z,7.10
2023-03-26T04:18:10.304Z,7.10
2023-03-26T04:20:40.994Z,7.10
2023-03-26T04:23:13.930Z,7.10
2023-03-26T04:25:58.251Z,7.10
2023-03-26T04:28:48.766Z,7.20
2023-03-26T04:31:24.285Z,7.20
2023-03-26T04:33:56.297Z,7.20
2023-03-26T04:36:29.373Z,7.20
2023-03-26T04:38:58.463Z,7.20
2023-03-26T04:41:46.114Z,7.20
2023-03-26T04:44:22.337Z,7.20
2023-03-26T04:46:55.214Z,7.20
2023-03-26T04:49:35.101Z,7.20
2023-03-26T04:52:02.164Z,7.20
2023-03-26T04:54:51.756Z,7.10
2023-03-26T04:57:32.662Z,7.10
2023-03-26T05:00:18.936Z,7.10
2023-03-26T05:02:53.872Z,7.20
2023-03-26T05:05:20.916Z,7.20
2023-03-26T05:07:49.278Z,7.20
2023-03-26T05:10:20.570Z,7.20
2023-03-26T05:12:51.713Z,7.20
2023-03-26T05:15:25.307Z,7.20
2023-03-26T05:17:58.185Z,7.20
2023-03-26T05:20:30.343Z,7.20
2023-03-26T05:22:57.508Z,7.20
2023-03-26T05:25:32.829Z,7.20
2023-03-26T05:28:04.323Z,7.20
2023-03-26T05:30:53.153Z,7.20
2023-03-26T05:33:23.128Z,7.20
2023-03-26T05:36:07.822Z,7.20
2023-03-26T05:38:34.889Z,7.30
2023-03-26T05:41:07.462Z,7.30
2023-03-26T05:43:37.569Z,7.30
2023-03-26T05:46:20.154Z,7.30
2023-03-26T05:48:47.431Z,7.30
2023-03-26T05:51:16.790Z,7.30
2023-03-26T05:53:51.632Z,7.30
2023-03-26T05:56:37.181Z,7.30
2023-03-26T05:59:23.134Z,7.30
2023-03-26T06:02:16.016Z,7.30
2023-03-26T06:05:09.807Z,7.30
2023-03-26T06:07:57.246Z,7.40
2023-03-26T06:10:30.334Z,7.40
2023-03-26T06:12:57.111Z,7.40
2023-03-26T06:15:23.979Z,7.40
2023-03-26T06:18:13.790Z,7.50
2023-03-26T06:20:58.261Z,7.50
2023-03-26T06:23:39.484Z,7.50
2023-03-26T06:26:24.655Z,7.50
2023-03-26T06:29:23.922Z,7.50
2023-03-26T06:32:20.643Z,7.50
2023-03-26T06:34:53.897Z,7.60
2023-03-26T06:37:20.792Z,7.60
2023-03-26T06:39:49.323Z,7.50
2023-03-26T06:42:20.685Z,7.50
2023-03-26T06:45:25.872Z,7.60
2023-03-26T06:48:27.767Z,7.70
2023-03-26T06:51:12.986Z,7.70
2023-03-26T06:54:11.937Z,7.80
2023-03-26T06:57:03.561Z,7.80
2023-03-26T06:59:30.624Z,7.80
2023-03-26T07:02:16.330Z,7.80
2023-03-26T07:05:02.055Z,7.90
2023-03-26T07:07:48.486Z,8.00
2023-03-26T07:10:34.095Z,8.00
2023-03-26T07:13:24.560Z,8.00
2023-03-26T07:16:17.001Z,8.10
2023-03-26T07:19:00.634Z,8.10
2023-03-26T07:21:32.245Z,8.20
2023-03-26T07:24:00.212Z,8.10
2023-03-26T07:27:22.667Z,8.10
2023-03-26T07:29:57.932Z,8.20
2023-03-26T07:32:58.138Z,8.30
2023-03-26T07:36:12.017Z,8.30
2023-03-26T07:39:09.823Z,8.30
2023-03-26T07:41:51.107Z,8.30
2023-03-26T07:44:52.852Z,8.30
2023-03-26T07:47:44.952Z,8.30
2023-03-26T07:50:32.271Z,8.20
2023-03-26T07:53:05.164Z,8.20
2023-03-26T07:56:22.266Z,8.20
2023-03-26T07:59:33.383Z,8.10
2023-03-26T08:02:30.983Z,8.10
2023-03-26T08:05:28.475Z,8.00
2023-03-26T08:08:45.716Z,8.00
2023-03-26T08:11:53.971Z,7.90
2023-03-26T08:14:36.337Z,7.90
2023-03-26T08:17:19.587Z,7.80
2023-03-26T08:20:10.343Z,7.90
2023-03-26T08:22:50.766Z,8.00
2023-03-26T08:25:27.586Z,8.10
2023-03-26T08:28:08.481Z,8.10
2023-03-26T08:30:35.777Z,8.20
2023-03-26T08:33:11.326Z,8.40
2023-03-26T08:35:42.303Z,8.60
2023-03-26T08:38:13.873Z,8.70
2023-03-26T08:41:11.856Z,8.90
2023-03-26T08:44:06.171Z,8.90
2023-03-26T08:47:09.775Z,8.90
2023-03-26T08:50:23.305Z,8.90
2023-03-26T08:53:08.533Z,8.70
2023-03-26T08:56:08.730Z,8.70
2023-03-26T08:59:07.079Z,8.70
2023-03-26T09:02:07.156Z,8.70
2023-03-26T09:05:11.446Z,8.80
2023-03-26T09:07:48.959Z,8.90
2023-03-26T09:10:21.895Z,9.10
2023-03-26T09:13:03.027Z,9.10
2023-03-26T09:15:53.062Z,9.10
2023-03-26T09:18:55.022Z,9.10
2023-03-26T09:21:29.840Z,9.20
2023-03-26T09:24:22.533Z,9.30
2023-03-26T09:27:35.518Z,9.30
2023-03-26T09:30:11.317Z,9.40
2023-03-26T09:33:12.879Z,9.60
2023-03-26T09:35:53.692Z,9.70
2023-03-26T09:38:42.597Z,9.80
2023-03-26T09:41:21.880Z,9.80
2023-03-26T09:44:10.280Z,10.00
2023-03-26T09:47:04.130Z,10.20
2023-03-26T09:49:42.768Z,10.20
2023-03-26T09:52:22.652Z,10.40
2023-03-26T09:55:20.153Z,10.50
2023-03-26T09:57:58.349Z,10.50
2023-03-26T10:01:05.680Z,10.70
2023-03-26T10:03:58.208Z,10.60
2023-03-26T10:06:56.607Z,10.90
2023-03-26T10:09:43.233Z,10.90
2023-03-26T10:12:25.560Z,10.70
2023-03-26T10:15:09.643Z,10.70
2023-03-26T10:17:48.341Z,10.60
2023-03-26T10:20:49.115Z,10.60
2023-03-26T10:23:30.024Z,10.70
2023-03-26T10:26:08.751Z,10.80
2023-03-26T10:28:52.869Z,10.80
2023-03-26T10:31:55.990Z,10.80
2023-03-26T10:34:41.739Z,10.90
2023-03-26T10:37:19.216Z,11.10
2023-03-26T10:40:16.978Z,11.40
2023-03-26T10:43:12.491Z,11.70
2023-03-26T10:46:08.562Z,11.90
2023-03-26T10:49:11.733Z,12.10
2023-03-26T10:51:54.817Z,12.10
2023-03-26T10:54:34.965Z,12.10
2023-03-26T10:57:22.895Z,12.10
2023-03-26T10:59:49.778Z,11.90
2023-03-26T11:02:44.590Z,11.90
2023-03-26T11:05:26.331Z,11.90
2023-03-26T11:08:06.431Z,11.70
2023-03-26T11:10:59.258Z,11.60
2023-03-26T11:13:42.725Z,11.40
2023-03-26T11:16:30.293Z,11.20
2023-03-26T11:19:08.310Z,11.10
2023-03-26T11:22:19.434Z,10.90
2023-03-26T11:25:25.357Z,10.90
2023-03-26T11:28:23.879Z,10.90
2023-03-26T11:31:19.769Z,11.00
2023-03-26T11:33:52.445Z,11.10
2023-03-26T11:36:26.199Z,11.30
2023-03-26T11:38:57.574Z,11.40
2023-03-26T11:41:33.458Z,11.70
2023-03-26T11:44:30.513Z,12.10
2023-03-26T11:47:01.683Z,12.30
2023-03-26T11:49:29.461Z,12.50
2023-03-26T11:51:56.544Z,12.60
2023-03-26T11:54:23.274Z,12.60
2023-03-26T11:57:05.996Z,12.50
2023-03-26T11:59:48.840Z,12.60
2023-03-26T12:02:35.616Z,12.60
2023-03-26T12:05:14.754Z,12.50
2023-03-26T12:08:02.031Z,12.80
2023-03-26T12:10:31.301Z,13.00
2023-03-26T12:13:01.564Z,13.00
2023-03-26T12:15:30.779Z,13.00
2023-03-26T12:17:58.904Z,13.00
2023-03-26T12:20:25.610Z,12.80
2023-03-26T12:23:00.137Z,12.80
2023-03-26T12:25:36.954Z,12.90
2023-03-26T12:28:16.443Z,13.20
2023-03-26T12:30:58.144Z,13.60
2023-03-26T12:33:29.310Z,13.70
2023-03-26T12:36:00.913Z,13.90
2023-03-26T12:38:33.715Z,14.10
2023-03-26T12:41:04.584Z,14.20
2023-03-26T12:44:53.233Z,14.30
2023-03-26T12:47:57.822Z,14.20
2023-03-26T12:49:28.360Z,14.10
2023-03-26T12:52:07.116Z,13.90
2023-03-26T12:54:55.571Z,13.90
2023-03-26T12:57:25.238Z,14.20
2023-03-26T13:00:14.378Z,14.40
2023-03-26T13:03:05.645Z,14.40
2023-03-26T13:05:48.251Z,14.30
2023-03-26T13:08:38.100Z,14.30
2023-03-26T13:11:17.161Z,14.30
2023-03-26T13:14:04.918Z,14.30
2023-03-26T13:16:56.696Z,14.40
2023-03-26T13:19:23.302Z,14.50
2023-03-26T13:22:07.717Z,14.50
2023-03-26T13:24:55.739Z,14.70
2023-03-26T13:27:45.385Z,14.80
2023-03-26T13:30:12.031Z,14.70
2023-03-26T13:33:05.683Z,14.60
2023-03-26T13:35:42.078Z,14.70
2023-03-26T13:38:29.650Z,14.70
2023-03-26T13:41:06.893Z,14.80
2023-03-26T13:43:51.105Z,14.70
2023-03-26T13:46:26.230Z,14.80
2023-03-26T13:49:15.408Z,14.60
2023-03-26T13:51:50.311Z,14.40
2023-03-26T13:54:31.770Z,14.20
2023-03-26T13:57:07.821Z,14.00
2023-03-26T13:59:55.560Z,13.90
2023-03-26T14:02:35.604Z,13.80
2023-03-26T14:05:28.076Z,13.50
2023-03-26T14:08:19.791Z,13.50
2023-03-26T14:11:27.212Z,13.40
2023-03-26T14:14:20.396Z,13.30
2023-03-26T14:16:52.377Z,13.00
2023-03-26T14:19:49.985Z,12.90
2023-03-26T14:22:33.440Z,12.90
2023-03-26T14:25:25.584Z,12.90
2023-03-26T14:28:26.626Z,12.80
2023-03-26T14:31:28.877Z,12.60
2023-03-26T14:34:22.284Z,12.20
2023-03-26T14:37:10.545Z,11.70
2023-03-26T14:40:02.109Z,11.30
2023-03-26T14:42:42.865Z,11.00
2023-03-26T14:45:40.705Z,10.80
2023-03-26T14:48:31.490Z,10.60
2023-03-26T14:50:58.498Z,10.40
2023-03-26T14:53:29.744Z,10.30
2023-03-26T14:56:13.726Z,10.20
2023-03-26T14:59:03.647Z,10.00
2023-03-26T15:02:10.073Z,9.90
2023-03-26T15:04:47.537Z,9.70
2023-03-26T15:07:39.313Z,9.60
2023-03-26T15:10:11.983Z,9.50
2023-03-26T15:13:12.720Z,9.40
2023-03-26T15:16:08.051Z,9.30
2023-03-26T15:19:00.844Z,9.20
2023-03-26T15:21:42.599Z,9.10
2023-03-26T15:24:27.899Z,9.20
2023-03-26T15:27:27.893Z,9.20
2023-03-26T15:30:22.752Z,9.20
2023-03-26T15:33:08.859Z,9.30
2023-03-26T15:36:00.803Z,9.20
2023-03-26T15:38:55.079Z,9.10
2023-03-26T15:41:45.355Z,9.00
2023-03-26T15:44:43.817Z,9.00
2023-03-26T15:47:30.236Z,8.90
2023-03-26T15:50:18.619Z,8.80
2023-03-26T15:53:01.889Z,8.80
2023-03-26T15:55:41.344Z,8.80
2023-03-26T15:58:28.073Z,8.70
2023-03-26T16:01:09.296Z,8.70
2023-03-26T16:03:54.272Z,8.70
2023-03-26T16:06:34.091Z,8.70
2023-03-26T16:09:15.006Z,8.70
2023-03-26T16:11:50.745Z,8.60
2023-03-26T16:14:20.470Z,8.60
2023-03-26T16:16:51.378Z,8.70
2023-03-26T16:19:21.790Z,8.50
2023-03-26T16:22:01.766Z,8.50
2023-03-26T16:24:33.058Z,8.50
2023-03-26T16:27:05.249Z,8.50
2023-03-26T16:29:34.171Z,8.50
2023-03-26T16:32:09.726Z,8.50
2023-03-26T16:34:50.903Z,8.50
2023-03-26T16:37:36.164Z,8.40
2023-03-26T16:40:22.132Z,8.40
2023-03-26T16:43:00.991Z,8.40
2023-03-26T16:45:55.168Z,8.30
2023-03-26T16:48:36.853Z,8.30
2023-03-26T16:51:45.468Z,8.20
2023-03-26T16:54:38.733Z,8.20
2023-03-26T16:57:23.406Z,8.10
2023-03-26T17:00:24.540Z,8.10
2023-03-26T17:03:15.495Z,8.20
2023-03-26T17:05:54.168Z,8.20
2023-03-26T17:08:55.270Z,8.10
2023-03-26T17:11:56.462Z,8.20
2023-03-26T17:14:37.812Z,8.10
2023-03-26T17:17:36.712Z,8.20
2023-03-26T17:20:14.473Z,8.20
2023-03-26T17:23:12.747Z,8.20
2023-03-26T17:26:16.373Z,8.20
2023-03-26T17:29:01.638Z,8.20
2023-03-26T17:31:43.153Z,8.20
2023-03-26T17:34:32.819Z,8.10
2023-03-26T17:37:04.967Z,8.20
2023-03-26T17:39:41.922Z,8.20
2023-03-26T17:42:25.765Z,8.20
2023-03-26T17:44:56.468Z,8.30
2023-03-26T17:47:41.175Z,8.30
2023-03-26T17:50:22.599Z,8.30
2023-03-26T17:53:02.009Z,8.40
2023-03-26T17:55:34.896Z,8.30
2023-03-26T17:58:04.088Z,8.30
2023-03-26T18:00:44.711Z,8.20
2023-03-26T18:03:20.734Z,8.10
2023-03-26T18:05:55.858Z,8.00
2023-03-26T18:08:38.259Z,8.00
2023-03-26T18:11:36.093Z,8.10
2023-03-26T18:14:02.755Z,8.10
2023-03-26T18:16:42.480Z,8.10
2023-03-26T18:19:19.190Z,8.00
2023-03-26T18:21:53.309Z,8.10
2023-03-26T18:24:28.663Z,8.10
2023-03-26T18:27:01.673Z,8.10
2023-03-26T18:29:33.680Z,8.10
2023-03-26T18:32:08.967Z,8.20
2023-03-26T18:34:39.871Z,8.20
2023-03-26T18:37:16.528Z,8.20
2023-03-26T18:40:35.849Z,8.20
2023-03-26T18:43:03.331Z,8.10
2023-03-26T18:45:38.822Z,8.20
2023-03-26T18:48:19.089Z,8.10
2023-03-26T18:50:47.562Z,8.10
2023-03-26T18:53:24.508Z,8.10
2023-03-26T18:55:52.429Z,8.10
2023-03-26T18:58:49.977Z,8.10
2023-03-26T19:01:25.519Z,8.00
2023-03-26T19:03:54.176Z,8.00
2023-03-26T19:06:21.978Z,7.90
2023-03-26T19:08:49.512Z,8.00
2023-03-26T19:11:17.682Z,7.90
2023-03-26T19:13:49.649Z,7.80
2023-03-26T19:16:22.353Z,7.70
2023-03-26T19:18:50.008Z,7.70
2023-03-26T19:21:18.988Z,7.60
2023-03-26T19:23:47.269Z,7.60
2023-03-26T19:26:15.148Z,7.50
2023-03-26T19:28:49.036Z,7.50
2023-03-26T19:31:27.149Z,7.40
2023-03-26T19:33:59.274Z,7.40
2023-03-26T19:36:31.590Z,7.40
2023-03-26T19:39:02.083Z,7.40
2023-03-26T19:41:38.870Z,7.50
2023-03-26T19:44:20.529Z,7.50
2023-03-26T19:46:53.906Z,7.50
2023-03-26T19:49:33.375Z,7.50
2023-03-26T19:52:20.795Z,7.60
2023-03-26T19:54:59.448Z,7.60
2023-03-26T19:57:32.141Z,7.50
2023-03-26T19:59:59.320Z,7.50
2023-03-26T20:02:27.184Z,7.50
2023-03-26T20:04:53.979Z,7.50
2023-03-26T20:07:35.974Z,7.50
2023-03-26T20:10:05.470Z,7.40
2023-03-26T20:12:32.674Z,7.30
2023-03-26T20:15:00.306Z,7.30
2023-03-26T20:17:27.140Z,7.30
2023-03-26T20:19:54.238Z,7.20
2023-03-26T20:22:20.959Z,7.10
2023-03-26T20:24:47.993Z,7.00
2023-03-26T20:27:14.928Z,7.00
2023-03-26T20:29:42.399Z,6.90
2023-03-26T20:32:23.610Z,6.90
2023-03-26T20:34:51.671Z,6.90
2023-03-26T20:37:18.707Z,6.80
2023-03-26T20:39:45.725Z,6.80
2023-03-26T20:42:15.449Z,6.80
2023-03-26T20:44:43.494Z,6.80
2023-03-26T20:47:11.889Z,6.80
2023-03-26T20:49:38.964Z,6.80
2023-03-26T20:52:06.190Z,6.80
2023-03-26T20:54:33.091Z,6.80
2023-03-26T20:57:00.079Z,6.80
2023-03-26T20:59:28.327Z,6.80
2023-03-26T21:01:57.497Z,6.70
2023-03-26T21:04:24.950Z,6.70
2023-03-26T21:06:55.108Z,6.70
2023-03-26T21:09:25.184Z,6.60
2023-03-26T21:12:08.425Z,6.60
2023-03-26T21:14:43.936Z,6.60
2023-03-26T21:17:15.642Z,6.60
2023-03-26T21:19:42.925Z,6.60
2023-03-26T21:22:26.225Z,6.60
2023-03-26T21:25:11.570Z,6.60
2023-03-26T21:28:08.558Z,6.60
2023-03-26T21:30:35.717Z,6.60
2023-03-26T21:33:05.146Z,6.70
2023-03-26T21:35:34.387Z,6.70
2023-03-26T21:38:04.087Z,6.80
2023-03-26T21:40:31.123Z,6.70
2023-03-26T21:42:58.206Z,6.80
2023-03-26T21:45:25.312Z,6.80
2023-03-26T21:47:52.398Z,6.90
2023-03-26T21:50:22.136Z,6.80
2023-03-26T21:52:50.088Z,6.80
2023-03-26T21:55:22.430Z,6.80
2023-03-26T21:58:09.978Z,6.80
2023-03-26T22:00:47.443Z,6.80
2023-03-26T22:03:55.894Z,6.80
2023-03-26T22:06:50.457Z,6.80
2023-03-26T22:09:20.722Z,6.80
2023-03-26T22:11:53.261Z,6.70
2023-03-26T22:14:20.591Z,6.70
2023-03-26T22:16:47.492Z,6.70
2023-03-26T22:19:14.278Z,6.70
2023-03-26T22:21:40.941Z,6.70
2023-03-26T22:24:08.489Z,6.70
2023-03-26T22:26:37.377Z,6.70
2023-03-26T22:29:06.096Z,6.70
2023-03-26T22:31:32.819Z,6.70
2023-03-26T22:33:59.572Z,6.70
2023-03-26T22:36:27.327Z,6.70
2023-03-26T22:38:54.789Z,6.70
2023-03-26T22:41:22.642Z,6.70
2023-03-26T22:43:52.097Z,6.70
2023-03-26T22:46:19.588Z,6.70
2023-03-26T22:48:48.252Z,6.70
2023-03-26T22:51:16.093Z,6.60
2023-03-26T22:53:43.570Z,6.60
2023-03-26T22:56:11.727Z,6.60
2023-03-26T22:58:38.454Z,6.60
2023-03-26T23:01:14.540Z,6.60
2023-03-26T23:03:41.959Z,6.60
2023-03-26T23:06:10.881Z,6.60
2023-03-26T23:08:38.576Z,6.60
2023-03-26T23:11:13.546Z,6.60
2023-03-26T23:13:41.905Z,6.70
2023-03-26T23:16:10.204Z,6.60
2023-03-26T23:18:37.850Z,6.60
2023-03-26T23:21:11.772Z,6.60
2023-03-26T23:23:39.601Z,6.60
2023-03-26T23:26:07.024Z,6.50
2023-03-26T23:28:34.795Z,6.50
2023-03-26T23:31:05.443Z,6.50
2023-03-26T23:33:35.411Z,6.40
2023-03-26T23:36:09.133Z,6.40
2023-03-26T23:38:44.102Z,6.40
2023-03-26T23:41:15.128Z,6.40
2023-03-26T23:43:53.546Z,6.40
2023-03-26T23:46:23.920Z,6.30
2023-03-26T23:48:51.344Z,6.30
2023-03-26T23:51:22.247Z,6.30
2023-03-26T23:53:49.680Z,6.30
2023-03-26T23:56:17.564Z,6.30
2023-03-26T23:58:44.675Z,6.30
